Lena, Wisconsin
Current Conditions -  °F | °C
As of 4:15 PM on Saturday 25 Oct 2014 (Local Time) from KOCQ Reporting Station
Clear Clear  
Wind Chill: 64°   Ceiling: Unl
Heat Index: 64°   Visibility: 10mi
Dew Point: 25°   Wind: 12mph
Humidity: 22%   Direction: 300°WNW
Pressure: 29.79"   Gusts: 20mph
Location:  44.95°N, 88.05°W
Report Text: KOCQ 252115Z AUTO 30010G17KT 10SM CLR 18/M04 A2979 RMK AO1 T01781041
Loading
Personal Weather Stations






























Interactive Weather Map
Tropical Storm Tracking
New forecast layout! Learn more

10-Day Weather Forecast

Advertisements
Track Severe Weather on mobile